sensor_id;sensor_type;location;lat;lon;timestamp;temperature;humidity
3709;DHT22;1870;53.996;10.784;2023-06-26T00:00:30;22.80;99.90
3709;DHT22;1870;53.996;10.784;2023-06-26T00:02:55;22.70;99.90
3709;DHT22;1870;53.996;10.784;2023-06-26T00:05:21;22.70;99.90
3709;DHT22;1870;53.996;10.784;2023-06-26T00:07:47;22.70;99.90
3709;DHT22;1870;53.996;10.784;2023-06-26T00:10:12;22.70;99.90
3709;DHT22;1870;53.996;10.784;2023-06-26T00:12:38;22.60;99.90
3709;DHT22;1870;53.996;10.784;2023-06-26T00:15:04;22.60;99.90
3709;DHT22;1870;53.996;10.784;2023-06-26T00:17:30;22.50;99.90
3709;DHT22;1870;53.996;10.784;2023-06-26T00:19:55;22.50;99.90
3709;DHT22;1870;53.996;10.784;2023-06-26T00:22:21;22.50;99.90
3709;DHT22;1870;53.996;10.784;2023-06-26T00:24:47;22.40;99.90
3709;DHT22;1870;53.996;10.784;2023-06-26T00:27:13;22.40;99.90
3709;DHT22;1870;53.996;10.784;2023-06-26T00:29:39;22.40;99.90
3709;DHT22;1870;53.996;10.784;2023-06-26T00:32:06;22.40;99.90
3709;DHT22;1870;53.996;10.784;2023-06-26T00:34:31;22.30;99.90
3709;DHT22;1870;53.996;10.784;2023-06-26T00:36:57;22.30;99.90
3709;DHT22;1870;53.996;10.784;2023-06-26T00:39:23;22.30;99.90
3709;DHT22;1870;53.996;10.784;2023-06-26T00:41:51;22.20;99.90
3709;DHT22;1870;53.996;10.784;2023-06-26T00:44:19;22.20;99.90
3709;DHT22;1870;53.996;10.784;2023-06-26T00:46:45;22.20;99.90
3709;DHT22;1870;53.996;10.784;2023-06-26T00:49:11;22.20;99.90
3709;DHT22;1870;53.996;10.784;2023-06-26T00:51:37;22.10;99.90
3709;DHT22;1870;53.996;10.784;2023-06-26T00:54:02;22.10;99.90
3709;DHT22;1870;53.996;10.784;2023-06-26T00:56:31;22.10;99.90
3709;DHT22;1870;53.996;10.784;2023-06-26T00:58:57;22.00;99.90
3709;DHT22;1870;53.996;10.784;2023-06-26T01:01:23;22.00;99.90
3709;DHT22;1870;53.996;10.784;2023-06-26T01:03:51;22.00;99.90
3709;DHT22;1870;53.996;10.784;2023-06-26T01:06:22;21.90;99.90
3709;DHT22;1870;53.996;10.784;2023-06-26T01:08:50;21.90;99.90
3709;DHT22;1870;53.996;10.784;2023-06-26T01:11:16;21.80;99.90
3709;DHT22;1870;53.996;10.784;2023-06-26T01:13:43;21.80;99.90
3709;DHT22;1870;53.996;10.784;2023-06-26T01:16:11;21.70;99.90
3709;DHT22;1870;53.996;10.784;2023-06-26T01:18:38;21.70;99.90
3709;DHT22;1870;53.996;10.784;2023-06-26T01:21:09;21.60;99.90
3709;DHT22;1870;53.996;10.784;2023-06-26T01:26:20;21.60;99.90
3709;DHT22;1870;53.996;10.784;2023-06-26T01:28:47;21.50;99.90
3709;DHT22;1870;53.996;10.784;2023-06-26T01:31:20;21.50;99.90
3709;DHT22;1870;53.996;10.784;2023-06-26T01:33:46;21.40;99.90
3709;DHT22;1870;53.996;10.784;2023-06-26T01:36:12;21.30;99.90
3709;DHT22;1870;53.996;10.784;2023-06-26T01:38:38;21.40;99.90
3709;DHT22;1870;53.996;10.784;2023-06-26T01:41:06;21.40;99.90
3709;DHT22;1870;53.996;10.784;2023-06-26T01:49:12;21.30;99.90
3709;DHT22;1870;53.996;10.784;2023-06-26T01:57:27;21.20;99.90
3709;DHT22;1870;53.996;10.784;2023-06-26T01:59:55;21.20;99.90
3709;DHT22;1870;53.996;10.784;2023-06-26T02:02:23;21.10;99.90
3709;DHT22;1870;53.996;10.784;2023-06-26T02:04:50;21.10;99.90
3709;DHT22;1870;53.996;10.784;2023-06-26T02:07:16;21.10;99.90
3709;DHT22;1870;53.996;10.784;2023-06-26T02:09:41;21.10;99.90
3709;DHT22;1870;53.996;10.784;2023-06-26T02:12:07;21.10;99.90
3709;DHT22;1870;53.996;10.784;2023-06-26T02:14:33;21.10;99.90
3709;DHT22;1870;53.996;10.784;2023-06-26T02:16:59;21.10;99.90
3709;DHT22;1870;53.996;10.784;2023-06-26T02:19:26;21.10;99.90
3709;DHT22;1870;53.996;10.784;2023-06-26T02:21:53;21.10;99.90
3709;DHT22;1870;53.996;10.784;2023-06-26T02:24:18;21.10;99.90
3709;DHT22;1870;53.996;10.784;2023-06-26T02:26:44;21.10;99.90
3709;DHT22;1870;53.996;10.784;2023-06-26T02:29:11;21.10;99.90
3709;DHT22;1870;53.996;10.784;2023-06-26T02:31:37;21.10;99.90
3709;DHT22;1870;53.996;10.784;2023-06-26T02:34:03;21.10;99.90
3709;DHT22;1870;53.996;10.784;2023-06-26T02:36:28;21.00;99.90
3709;DHT22;1870;53.996;10.784;2023-06-26T02:38:54;21.10;99.90
3709;DHT22;1870;53.996;10.784;2023-06-26T02:41:20;21.10;99.90
3709;DHT22;1870;53.996;10.784;2023-06-26T02:43:45;21.10;99.90
3709;DHT22;1870;53.996;10.784;2023-06-26T02:46:11;21.00;99.90
3709;DHT22;1870;53.996;10.784;2023-06-26T02:48:37;21.00;99.90
3709;DHT22;1870;53.996;10.784;2023-06-26T02:51:02;21.00;99.90
3709;DHT22;1870;53.996;10.784;2023-06-26T02:53:28;21.00;99.90
3709;DHT22;1870;53.996;10.784;2023-06-26T02:55:53;21.00;99.90
3709;DHT22;1870;53.996;10.784;2023-06-26T02:58:19;21.00;99.90
3709;DHT22;1870;53.996;10.784;2023-06-26T03:00:45;21.00;99.90
3709;DHT22;1870;53.996;10.784;2023-06-26T03:03:10;21.00;99.90
3709;DHT22;1870;53.996;10.784;2023-06-26T03:05:38;20.90;99.90
3709;DHT22;1870;53.996;10.784;2023-06-26T03:08:04;21.00;99.90
3709;DHT22;1870;53.996;10.784;2023-06-26T03:10:29;21.00;99.90
3709;DHT22;1870;53.996;10.784;2023-06-26T03:12:55;21.00;99.90
3709;DHT22;1870;53.996;10.784;2023-06-26T03:15:21;21.00;99.90
3709;DHT22;1870;53.996;10.784;2023-06-26T03:17:46;21.00;99.90
3709;DHT22;1870;53.996;10.784;2023-06-26T03:20:12;21.00;99.90
3709;DHT22;1870;53.996;10.784;2023-06-26T03:22:37;21.00;99.90
3709;DHT22;1870;53.996;10.784;2023-06-26T03:25:03;21.00;99.90
3709;DHT22;1870;53.996;10.784;2023-06-26T03:27:30;21.00;99.90
3709;DHT22;1870;53.996;10.784;2023-06-26T03:29:56;21.10;99.90
3709;DHT22;1870;53.996;10.784;2023-06-26T03:32:21;21.10;99.90
3709;DHT22;1870;53.996;10.784;2023-06-26T03:34:47;21.10;99.90
3709;DHT22;1870;53.996;10.784;2023-06-26T03:37:12;21.10;99.90
3709;DHT22;1870;53.996;10.784;2023-06-26T03:39:38;21.20;99.90
3709;DHT22;1870;53.996;10.784;2023-06-26T03:42:04;21.20;99.90
3709;DHT22;1870;53.996;10.784;2023-06-26T03:44:30;21.10;99.90
3709;DHT22;1870;53.996;10.784;2023-06-26T03:46:56;21.10;99.90
3709;DHT22;1870;53.996;10.784;2023-06-26T03:49:22;21.20;99.90
3709;DHT22;1870;53.996;10.784;2023-06-26T03:51:47;21.10;99.90
3709;DHT22;1870;53.996;10.784;2023-06-26T03:54:13;21.10;99.90
3709;DHT22;1870;53.996;10.784;2023-06-26T03:56:39;21.20;99.90
3709;DHT22;1870;53.996;10.784;2023-06-26T03:59:05;21.30;99.90
3709;DHT22;1870;53.996;10.784;2023-06-26T04:01:30;21.30;99.90
3709;DHT22;1870;53.996;10.784;2023-06-26T04:03:56;21.40;99.90
3709;DHT22;1870;53.996;10.784;2023-06-26T04:06:21;21.40;99.90
3709;DHT22;1870;53.996;10.784;2023-06-26T04:08:47;21.40;99.90
3709;DHT22;1870;53.996;10.784;2023-06-26T04:11:13;21.40;99.90
3709;DHT22;1870;53.996;10.784;2023-06-26T04:13:39;21.50;99.90
3709;DHT22;1870;53.996;10.784;2023-06-26T04:16:04;21.60;99.90
3709;DHT22;1870;53.996;10.784;2023-06-26T04:18:31;21.50;99.90
3709;DHT22;1870;53.996;10.784;2023-06-26T04:21:07;21.60;99.90
3709;DHT22;1870;53.996;10.784;2023-06-26T04:23:34;21.70;99.90
3709;DHT22;1870;53.996;10.784;2023-06-26T04:26:00;21.60;99.90
3709;DHT22;1870;53.996;10.784;2023-06-26T04:28:27;21.80;99.90
3709;DHT22;1870;53.996;10.784;2023-06-26T04:30:53;21.80;99.90
3709;DHT22;1870;53.996;10.784;2023-06-26T04:33:19;21.90;99.90
3709;DHT22;1870;53.996;10.784;2023-06-26T04:35:44;21.80;99.90
3709;DHT22;1870;53.996;10.784;2023-06-26T04:38:16;21.70;99.90
3709;DHT22;1870;53.996;10.784;2023-06-26T04:40:42;21.80;99.90
3709;DHT22;1870;53.996;10.784;2023-06-26T04:43:08;21.90;99.90
3709;DHT22;1870;53.996;10.784;2023-06-26T04:45:33;21.80;99.90
3709;DHT22;1870;53.996;10.784;2023-06-26T04:47:59;21.90;99.90
3709;DHT22;1870;53.996;10.784;2023-06-26T04:50:27;21.90;99.90
3709;DHT22;1870;53.996;10.784;2023-06-26T04:52:55;21.90;99.90
3709;DHT22;1870;53.996;10.784;2023-06-26T04:55:21;22.00;99.90
3709;DHT22;1870;53.996;10.784;2023-06-26T04:57:49;22.10;99.90
3709;DHT22;1870;53.996;10.784;2023-06-26T05:00:15;22.10;99.90
3709;DHT22;1870;53.996;10.784;2023-06-26T05:02:41;22.10;99.90
3709;DHT22;1870;53.996;10.784;2023-06-26T05:05:07;22.30;99.90
3709;DHT22;1870;53.996;10.784;2023-06-26T05:07:32;22.40;99.90
3709;DHT22;1870;53.996;10.784;2023-06-26T05:09:58;22.40;99.90
3709;DHT22;1870;53.996;10.784;2023-06-26T05:12:24;22.30;99.90
3709;DHT22;1870;53.996;10.784;2023-06-26T05:14:51;22.40;99.90
3709;DHT22;1870;53.996;10.784;2023-06-26T05:17:16;22.40;99.90
3709;DHT22;1870;53.996;10.784;2023-06-26T05:19:44;22.50;99.90
3709;DHT22;1870;53.996;10.784;2023-06-26T05:22:12;22.60;99.90
3709;DHT22;1870;53.996;10.784;2023-06-26T05:24:39;22.60;99.90
3709;DHT22;1870;53.996;10.784;2023-06-26T05:27:06;22.70;99.90
3709;DHT22;1870;53.996;10.784;2023-06-26T05:29:32;22.70;99.90
3709;DHT22;1870;53.996;10.784;2023-06-26T05:31:59;22.80;99.90
3709;DHT22;1870;53.996;10.784;2023-06-26T05:34:26;22.90;99.90
3709;DHT22;1870;53.996;10.784;2023-06-26T05:36:58;23.00;99.90
3709;DHT22;1870;53.996;10.784;2023-06-26T05:39:24;23.00;99.90
3709;DHT22;1870;53.996;10.784;2023-06-26T05:41:50;23.10;99.90
3709;DHT22;1870;53.996;10.784;2023-06-26T05:44:16;23.30;99.90
3709;DHT22;1870;53.996;10.784;2023-06-26T05:46:43;23.30;99.90
3709;DHT22;1870;53.996;10.784;2023-06-26T05:49:09;23.30;99.90
3709;DHT22;1870;53.996;10.784;2023-06-26T05:51:35;23.30;99.90
3709;DHT22;1870;53.996;10.784;2023-06-26T05:54:01;23.40;99.90
3709;DHT22;1870;53.996;10.784;2023-06-26T05:56:26;23.30;99.90
3709;DHT22;1870;53.996;10.784;2023-06-26T05:58:53;23.60;99.90
3709;DHT22;1870;53.996;10.784;2023-06-26T06:01:22;23.60;99.90
3709;DHT22;1870;53.996;10.784;2023-06-26T06:03:48;23.60;99.90
3709;DHT22;1870;53.996;10.784;2023-06-26T06:06:14;23.70;99.90
3709;DHT22;1870;53.996;10.784;2023-06-26T06:08:41;23.70;99.90
3709;DHT22;1870;53.996;10.784;2023-06-26T06:11:07;23.70;99.90
3709;DHT22;1870;53.996;10.784;2023-06-26T06:13:32;23.80;99.90
3709;DHT22;1870;53.996;10.784;2023-06-26T06:15:58;23.90;99.90
3709;DHT22;1870;53.996;10.784;2023-06-26T06:18:23;24.00;99.90
3709;DHT22;1870;53.996;10.784;2023-06-26T06:20:49;24.20;99.90
3709;DHT22;1870;53.996;10.784;2023-06-26T06:23:15;24.30;99.90
3709;DHT22;1870;53.996;10.784;2023-06-26T06:25:41;24.50;99.90
3709;DHT22;1870;53.996;10.784;2023-06-26T06:28:10;24.60;99.90
3709;DHT22;1870;53.996;10.784;2023-06-26T06:30:35;24.50;99.90
3709;DHT22;1870;53.996;10.784;2023-06-26T06:33:01;24.60;99.90
3709;DHT22;1870;53.996;10.784;2023-06-26T06:35:27;24.70;99.90
3709;DHT22;1870;53.996;10.784;2023-06-26T06:37:53;24.50;99.90
3709;DHT22;1870;53.996;10.784;2023-06-26T06:40:18;24.60;99.90
3709;DHT22;1870;53.996;10.784;2023-06-26T06:42:44;24.80;99.90
3709;DHT22;1870;53.996;10.784;2023-06-26T06:45:10;24.80;99.90
3709;DHT22;1870;53.996;10.784;2023-06-26T06:47:36;24.80;99.90
3709;DHT22;1870;53.996;10.784;2023-06-26T06:50:02;24.90;99.90
3709;DHT22;1870;53.996;10.784;2023-06-26T06:52:38;25.10;99.90
3709;DHT22;1870;53.996;10.784;2023-06-26T06:55:04;25.20;99.90
3709;DHT22;1870;53.996;10.784;2023-06-26T06:57:32;25.20;99.90
3709;DHT22;1870;53.996;10.784;2023-06-26T07:00:02;25.30;99.90
3709;DHT22;1870;53.996;10.784;2023-06-26T07:02:30;25.10;99.90
3709;DHT22;1870;53.996;10.784;2023-06-26T07:04:55;25.10;99.90
3709;DHT22;1870;53.996;10.784;2023-06-26T07:07:21;25.30;99.90
3709;DHT22;1870;53.996;10.784;2023-06-26T07:09:47;25.50;99.90
3709;DHT22;1870;53.996;10.784;2023-06-26T07:12:12;25.60;99.90
3709;DHT22;1870;53.996;10.784;2023-06-26T07:14:39;25.70;99.90
3709;DHT22;1870;53.996;10.784;2023-06-26T07:17:04;25.80;99.90
3709;DHT22;1870;53.996;10.784;2023-06-26T07:19:30;25.90;99.90
3709;DHT22;1870;53.996;10.784;2023-06-26T07:21:55;26.10;99.90
3709;DHT22;1870;53.996;10.784;2023-06-26T07:24:21;26.10;99.90
3709;DHT22;1870;53.996;10.784;2023-06-26T07:26:47;26.10;99.90
3709;DHT22;1870;53.996;10.784;2023-06-26T07:29:13;26.10;99.90
3709;DHT22;1870;53.996;10.784;2023-06-26T07:31:38;26.20;99.90
3709;DHT22;1870;53.996;10.784;2023-06-26T07:34:07;26.30;99.90
3709;DHT22;1870;53.996;10.784;2023-06-26T07:36:38;26.40;99.90
3709;DHT22;1870;53.996;10.784;2023-06-26T07:39:03;26.40;99.90
3709;DHT22;1870;53.996;10.784;2023-06-26T07:41:32;26.60;99.90
3709;DHT22;1870;53.996;10.784;2023-06-26T07:44:00;26.60;99.90
3709;DHT22;1870;53.996;10.784;2023-06-26T07:46:26;26.70;99.90
3709;DHT22;1870;53.996;10.784;2023-06-26T07:48:52;26.80;99.90
3709;DHT22;1870;53.996;10.784;2023-06-26T07:51:21;27.00;99.90
3709;DHT22;1870;53.996;10.784;2023-06-26T07:53:47;27.10;99.90
3709;DHT22;1870;53.996;10.784;2023-06-26T07:56:25;27.10;99.90
3709;DHT22;1870;53.996;10.784;2023-06-26T07:59:16;27.20;99.90
3709;DHT22;1870;53.996;10.784;2023-06-26T08:02:02;27.20;99.90
3709;DHT22;1870;53.996;10.784;2023-06-26T08:05:09;27.30;99.90
3709;DHT22;1870;53.996;10.784;2023-06-26T08:08:07;27.30;99.90
3709;DHT22;1870;53.996;10.784;2023-06-26T08:10:39;27.50;99.90
3709;DHT22;1870;53.996;10.784;2023-06-26T08:16:48;27.70;99.90
3709;DHT22;1870;53.996;10.784;2023-06-26T08:19:18;27.70;99.90
3709;DHT22;1870;53.996;10.784;2023-06-26T08:21:59;27.50;99.90
3709;DHT22;1870;53.996;10.784;2023-06-26T08:24:27;27.60;99.90
3709;DHT22;1870;53.996;10.784;2023-06-26T08:30:10;27.80;99.90
3709;DHT22;1870;53.996;10.784;2023-06-26T08:33:03;27.80;99.90
3709;DHT22;1870;53.996;10.784;2023-06-26T08:35:39;28.00;99.90
3709;DHT22;1870;53.996;10.784;2023-06-26T08:38:25;28.10;99.90
3709;DHT22;1870;53.996;10.784;2023-06-26T08:44:18;28.20;99.90
3709;DHT22;1870;53.996;10.784;2023-06-26T08:46:53;28.40;99.90
3709;DHT22;1870;53.996;10.784;2023-06-26T08:53:05;28.60;99.90
3709;DHT22;1870;53.996;10.784;2023-06-26T09:02:10;29.00;99.90
3709;DHT22;1870;53.996;10.784;2023-06-26T09:04:49;29.10;99.90
3709;DHT22;1870;53.996;10.784;2023-06-26T09:07:38;29.20;99.90
3709;DHT22;1870;53.996;10.784;2023-06-26T09:10:21;29.30;99.90
3709;DHT22;1870;53.996;10.784;2023-06-26T09:12:56;29.30;99.90
3709;DHT22;1870;53.996;10.784;2023-06-26T09:15:23;29.30;99.90
3709;DHT22;1870;53.996;10.784;2023-06-26T09:21:18;29.30;99.90
3709;DHT22;1870;53.996;10.784;2023-06-26T09:24:03;29.40;99.90
3709;DHT22;1870;53.996;10.784;2023-06-26T09:29:50;29.70;99.90
3709;DHT22;1870;53.996;10.784;2023-06-26T09:32:54;29.60;99.90
3709;DHT22;1870;53.996;10.784;2023-06-26T09:35:23;29.60;99.90
3709;DHT22;1870;53.996;10.784;2023-06-26T09:38:02;29.80;99.90
3709;DHT22;1870;53.996;10.784;2023-06-26T09:40:49;29.90;99.90
3709;DHT22;1870;53.996;10.784;2023-06-26T09:45:49;30.00;99.90
3709;DHT22;1870;53.996;10.784;2023-06-26T09:48:15;30.00;99.90
3709;DHT22;1870;53.996;10.784;2023-06-26T09:50:42;30.10;99.90
3709;DHT22;1870;53.996;10.784;2023-06-26T09:53:09;30.30;99.90
3709;DHT22;1870;53.996;10.784;2023-06-26T09:55:36;30.50;99.90
3709;DHT22;1870;53.996;10.784;2023-06-26T09:58:05;30.40;99.90
3709;DHT22;1870;53.996;10.784;2023-06-26T10:00:32;30.60;99.90
3709;DHT22;1870;53.996;10.784;2023-06-26T10:03:01;30.60;99.90
3709;DHT22;1870;53.996;10.784;2023-06-26T10:05:27;30.50;99.90
3709;DHT22;1870;53.996;10.784;2023-06-26T10:07:56;30.50;99.90
3709;DHT22;1870;53.996;10.784;2023-06-26T10:10:23;30.50;99.90
3709;DHT22;1870;53.996;10.784;2023-06-26T10:12:55;30.60;99.90
3709;DHT22;1870;53.996;10.784;2023-06-26T10:15:25;30.60;99.90
3709;DHT22;1870;53.996;10.784;2023-06-26T10:17:56;30.80;99.90
3709;DHT22;1870;53.996;10.784;2023-06-26T10:20:22;30.60;99.90
3709;DHT22;1870;53.996;10.784;2023-06-26T10:22:48;30.80;99.90
3709;DHT22;1870;53.996;10.784;2023-06-26T10:25:18;30.60;99.90
3709;DHT22;1870;53.996;10.784;2023-06-26T10:27:52;30.50;99.90
3709;DHT22;1870;53.996;10.784;2023-06-26T10:30:22;30.40;99.90
3709;DHT22;1870;53.996;10.784;2023-06-26T10:32:50;30.20;99.90
3709;DHT22;1870;53.996;10.784;2023-06-26T10:35:16;30.10;99.90
3709;DHT22;1870;53.996;10.784;2023-06-26T10:37:47;30.00;99.90
3709;DHT22;1870;53.996;10.784;2023-06-26T10:40:21;29.40;99.90
3709;DHT22;1870;53.996;10.784;2023-06-26T10:42:47;28.60;99.90
3709;DHT22;1870;53.996;10.784;2023-06-26T10:45:20;27.90;99.90
3709;DHT22;1870;53.996;10.784;2023-06-26T10:47:47;26.50;99.90
3709;DHT22;1870;53.996;10.784;2023-06-26T10:50:21;25.70;99.90
3709;DHT22;1870;53.996;10.784;2023-06-26T10:55:55;24.70;99.90
3709;DHT22;1870;53.996;10.784;2023-06-26T11:01:17;24.70;99.90
3709;DHT22;1870;53.996;10.784;2023-06-26T11:06:23;25.10;99.90
3709;DHT22;1870;53.996;10.784;2023-06-26T11:09:00;25.10;99.90
3709;DHT22;1870;53.996;10.784;2023-06-26T11:14:20;25.50;99.90
3709;DHT22;1870;53.996;10.784;2023-06-26T11:16:46;25.50;99.90
3709;DHT22;1870;53.996;10.784;2023-06-26T11:19:13;25.10;99.90
3709;DHT22;1870;53.996;10.784;2023-06-26T11:21:39;25.10;99.90
3709;DHT22;1870;53.996;10.784;2023-06-26T11:24:11;24.80;99.90
3709;DHT22;1870;53.996;10.784;2023-06-26T11:26:42;24.50;99.90
3709;DHT22;1870;53.996;10.784;2023-06-26T11:29:08;24.40;99.90
3709;DHT22;1870;53.996;10.784;2023-06-26T11:31:35;24.10;99.90
3709;DHT22;1870;53.996;10.784;2023-06-26T11:34:07;23.80;99.90
3709;DHT22;1870;53.996;10.784;2023-06-26T11:36:34;23.40;99.90
3709;DHT22;1870;53.996;10.784;2023-06-26T11:39:04;23.00;99.90
3709;DHT22;1870;53.996;10.784;2023-06-26T11:41:35;22.80;99.90
3709;DHT22;1870;53.996;10.784;2023-06-26T11:44:02;22.50;99.90
3709;DHT22;1870;53.996;10.784;2023-06-26T11:46:28;22.30;99.90
3709;DHT22;1870;53.996;10.784;2023-06-26T11:48:54;22.30;99.90
3709;DHT22;1870;53.996;10.784;2023-06-26T11:51:20;22.20;99.90
3709;DHT22;1870;53.996;10.784;2023-06-26T11:53:47;21.90;99.90
3709;DHT22;1870;53.996;10.784;2023-06-26T11:56:14;21.90;99.90
3709;DHT22;1870;53.996;10.784;2023-06-26T11:59:06;22.00;99.90
3709;DHT22;1870;53.996;10.784;2023-06-26T12:01:39;22.20;99.90
3709;DHT22;1870;53.996;10.784;2023-06-26T12:04:08;22.30;99.90
3709;DHT22;1870;53.996;10.784;2023-06-26T12:06:35;22.40;99.90
3709;DHT22;1870;53.996;10.784;2023-06-26T12:09:02;22.40;99.90
3709;DHT22;1870;53.996;10.784;2023-06-26T12:11:32;22.50;99.90
3709;DHT22;1870;53.996;10.784;2023-06-26T12:13:59;22.60;99.90
3709;DHT22;1870;53.996;10.784;2023-06-26T12:16:25;22.70;99.90
3709;DHT22;1870;53.996;10.784;2023-06-26T12:18:51;23.00;99.90
3709;DHT22;1870;53.996;10.784;2023-06-26T12:21:44;23.00;99.90
3709;DHT22;1870;53.996;10.784;2023-06-26T12:24:16;23.10;99.90
3709;DHT22;1870;53.996;10.784;2023-06-26T12:26:50;23.10;99.90
3709;DHT22;1870;53.996;10.784;2023-06-26T12:29:18;23.10;99.90
3709;DHT22;1870;53.996;10.784;2023-06-26T12:31:46;23.30;99.90
3709;DHT22;1870;53.996;10.784;2023-06-26T12:34:14;23.20;99.90
3709;DHT22;1870;53.996;10.784;2023-06-26T12:36:51;23.30;99.90
3709;DHT22;1870;53.996;10.784;2023-06-26T12:39:18;23.60;99.90
3709;DHT22;1870;53.996;10.784;2023-06-26T12:41:55;23.70;99.90
3709;DHT22;1870;53.996;10.784;2023-06-26T12:44:26;23.70;99.90
3709;DHT22;1870;53.996;10.784;2023-06-26T12:46:57;23.80;99.90
3709;DHT22;1870;53.996;10.784;2023-06-26T12:49:38;24.00;99.90
3709;DHT22;1870;53.996;10.784;2023-06-26T12:52:05;24.10;99.90
3709;DHT22;1870;53.996;10.784;2023-06-26T12:54:32;24.30;99.90
3709;DHT22;1870;53.996;10.784;2023-06-26T12:56:58;24.30;99.90
3709;DHT22;1870;53.996;10.784;2023-06-26T12:59:24;24.20;99.90
3709;DHT22;1870;53.996;10.784;2023-06-26T13:01:50;24.00;99.90
3709;DHT22;1870;53.996;10.784;2023-06-26T13:04:16;24.00;99.90
3709;DHT22;1870;53.996;10.784;2023-06-26T13:06:42;24.00;99.90
3709;DHT22;1870;53.996;10.784;2023-06-26T13:09:08;23.90;99.90
3709;DHT22;1870;53.996;10.784;2023-06-26T13:11:37;23.80;99.90
3709;DHT22;1870;53.996;10.784;2023-06-26T13:14:05;23.70;99.90
3709;DHT22;1870;53.996;10.784;2023-06-26T13:16:30;23.90;99.90
3709;DHT22;1870;53.996;10.784;2023-06-26T13:18:58;24.10;99.90
3709;DHT22;1870;53.996;10.784;2023-06-26T13:21:24;24.30;99.90
3709;DHT22;1870;53.996;10.784;2023-06-26T13:23:49;24.40;99.90
3709;DHT22;1870;53.996;10.784;2023-06-26T13:26:15;24.50;99.90
3709;DHT22;1870;53.996;10.784;2023-06-26T13:28:41;24.50;99.90
3709;DHT22;1870;53.996;10.784;2023-06-26T13:31:06;24.50;99.90
3709;DHT22;1870;53.996;10.784;2023-06-26T13:33:34;24.40;99.90
3709;DHT22;1870;53.996;10.784;2023-06-26T13:36:00;24.50;99.90
3709;DHT22;1870;53.996;10.784;2023-06-26T13:38:26;24.50;99.90
3709;DHT22;1870;53.996;10.784;2023-06-26T13:40:53;24.40;99.90
3709;DHT22;1870;53.996;10.784;2023-06-26T13:43:21;24.30;99.90
3709;DHT22;1870;53.996;10.784;2023-06-26T13:45:46;24.20;99.90
3709;DHT22;1870;53.996;10.784;2023-06-26T13:48:12;24.30;99.90
3709;DHT22;1870;53.996;10.784;2023-06-26T13:50:38;24.30;99.90
3709;DHT22;1870;53.996;10.784;2023-06-26T13:53:04;24.40;99.90
3709;DHT22;1870;53.996;10.784;2023-06-26T13:55:30;24.50;99.90
3709;DHT22;1870;53.996;10.784;2023-06-26T13:57:56;24.60;99.90
3709;DHT22;1870;53.996;10.784;2023-06-26T14:00:22;24.60;99.90
3709;DHT22;1870;53.996;10.784;2023-06-26T14:02:48;24.70;99.90
3709;DHT22;1870;53.996;10.784;2023-06-26T14:05:14;24.80;99.90
3709;DHT22;1870;53.996;10.784;2023-06-26T14:07:40;24.80;99.90
3709;DHT22;1870;53.996;10.784;2023-06-26T14:10:06;24.60;99.90
3709;DHT22;1870;53.996;10.784;2023-06-26T14:12:32;24.40;99.90
3709;DHT22;1870;53.996;10.784;2023-06-26T14:14:58;24.50;99.90
3709;DHT22;1870;53.996;10.784;2023-06-26T14:17:24;24.60;99.90
3709;DHT22;1870;53.996;10.784;2023-06-26T14:19:54;24.90;99.90
3709;DHT22;1870;53.996;10.784;2023-06-26T14:22:21;24.90;99.90
3709;DHT22;1870;53.996;10.784;2023-06-26T14:24:48;25.10;99.90
3709;DHT22;1870;53.996;10.784;2023-06-26T14:27:14;25.40;99.90
3709;DHT22;1870;53.996;10.784;2023-06-26T14:29:40;25.40;99.90
3709;DHT22;1870;53.996;10.784;2023-06-26T14:32:06;25.30;99.90
3709;DHT22;1870;53.996;10.784;2023-06-26T14:34:32;25.30;99.90
3709;DHT22;1870;53.996;10.784;2023-06-26T14:36:58;25.50;99.90
3709;DHT22;1870;53.996;10.784;2023-06-26T14:39:24;25.60;99.90
3709;DHT22;1870;53.996;10.784;2023-06-26T14:41:52;25.50;99.90
3709;DHT22;1870;53.996;10.784;2023-06-26T14:44:18;25.30;99.90
3709;DHT22;1870;53.996;10.784;2023-06-26T14:46:43;25.40;99.90
3709;DHT22;1870;53.996;10.784;2023-06-26T14:49:09;25.40;99.90
3709;DHT22;1870;53.996;10.784;2023-06-26T14:51:35;25.40;99.90
3709;DHT22;1870;53.996;10.784;2023-06-26T14:54:01;25.60;99.90
3709;DHT22;1870;53.996;10.784;2023-06-26T14:56:27;25.70;99.90
3709;DHT22;1870;53.996;10.784;2023-06-26T14:58:55;25.60;99.90
3709;DHT22;1870;53.996;10.784;2023-06-26T15:01:21;25.60;99.90
3709;DHT22;1870;53.996;10.784;2023-06-26T15:03:47;25.70;99.90
3709;DHT22;1870;53.996;10.784;2023-06-26T15:06:13;25.90;99.90
3709;DHT22;1870;53.996;10.784;2023-06-26T15:08:39;26.00;99.90
3709;DHT22;1870;53.996;10.784;2023-06-26T15:11:05;26.50;99.90
3709;DHT22;1870;53.996;10.784;2023-06-26T15:13:30;26.40;99.90
3709;DHT22;1870;53.996;10.784;2023-06-26T15:15:56;26.60;99.90
3709;DHT22;1870;53.996;10.784;2023-06-26T15:18:21;26.70;99.90
3709;DHT22;1870;53.996;10.784;2023-06-26T15:20:47;26.70;99.90
3709;DHT22;1870;53.996;10.784;2023-06-26T15:23:13;26.10;99.90
3709;DHT22;1870;53.996;10.784;2023-06-26T15:25:38;25.80;99.90
3709;DHT22;1870;53.996;10.784;2023-06-26T15:28:07;25.90;99.90
3709;DHT22;1870;53.996;10.784;2023-06-26T15:30:33;26.00;99.90
3709;DHT22;1870;53.996;10.784;2023-06-26T15:32:59;25.70;99.90
3709;DHT22;1870;53.996;10.784;2023-06-26T15:35:25;25.90;99.90
3709;DHT22;1870;53.996;10.784;2023-06-26T15:37:50;25.60;99.90
3709;DHT22;1870;53.996;10.784;2023-06-26T15:40:16;25.20;99.90
3709;DHT22;1870;53.996;10.784;2023-06-26T15:42:49;25.20;99.90
3709;DHT22;1870;53.996;10.784;2023-06-26T15:45:16;25.00;99.90
3709;DHT22;1870;53.996;10.784;2023-06-26T15:47:47;24.90;99.90
3709;DHT22;1870;53.996;10.784;2023-06-26T15:50:13;24.80;99.90
3709;DHT22;1870;53.996;10.784;2023-06-26T15:52:39;24.90;99.90
3709;DHT22;1870;53.996;10.784;2023-06-26T15:55:05;25.40;99.90
3709;DHT22;1870;53.996;10.784;2023-06-26T15:57:32;25.90;99.90
3709;DHT22;1870;53.996;10.784;2023-06-26T15:59:58;26.10;99.90
3709;DHT22;1870;53.996;10.784;2023-06-26T16:02:24;26.30;99.90
3709;DHT22;1870;53.996;10.784;2023-06-26T16:04:50;26.40;99.90
3709;DHT22;1870;53.996;10.784;2023-06-26T16:07:15;25.90;99.90
3709;DHT22;1870;53.996;10.784;2023-06-26T16:09:41;25.60;99.90
3709;DHT22;1870;53.996;10.784;2023-06-26T16:12:07;25.20;99.90
3709;DHT22;1870;53.996;10.784;2023-06-26T16:14:33;24.90;99.90
3709;DHT22;1870;53.996;10.784;2023-06-26T16:16:58;24.70;99.90
3709;DHT22;1870;53.996;10.784;2023-06-26T16:19:25;24.60;99.90
3709;DHT22;1870;53.996;10.784;2023-06-26T16:21:50;24.40;99.90
3709;DHT22;1870;53.996;10.784;2023-06-26T16:24:16;24.30;99.90
3709;DHT22;1870;53.996;10.784;2023-06-26T16:26:42;24.30;99.90
3709;DHT22;1870;53.996;10.784;2023-06-26T16:29:07;24.50;99.90
3709;DHT22;1870;53.996;10.784;2023-06-26T16:31:33;24.40;99.90
3709;DHT22;1870;53.996;10.784;2023-06-26T16:34:00;24.30;99.90
3709;DHT22;1870;53.996;10.784;2023-06-26T16:36:26;24.30;99.90
3709;DHT22;1870;53.996;10.784;2023-06-26T16:38:52;24.40;99.90
3709;DHT22;1870;53.996;10.784;2023-06-26T16:41:18;24.30;99.90
3709;DHT22;1870;53.996;10.784;2023-06-26T16:43:43;24.40;99.90